Time,TemperatureF,DewpointF,PressureIn,WindDirection,WindDirectionDegrees,WindSpeedMPH,WindSpeedGustMPH,Humidity,HourlyPrecipIn,Conditions,Clouds,dailyrainin,SoftwareType,DateUTC
2013-05-22 00:00:00,60.6,59.2,28.73,SSE,152,0.0,0.0,95,0.00,,---,0.00,VWS V14.01,2013-05-22 04:00:00,
2013-05-22 00:01:00,60.6,59.2,28.73,SSE,152,0.0,0.0,95,0.00,,---,0.00,VWS V14.01,2013-05-22 04:01:00,
2013-05-22 00:02:00,60.6,59.2,28.73,SSE,152,0.0,0.0,95,0.00,,---,0.00,VWS V14.01,2013-05-22 04:02:00,
2013-05-22 00:03:00,60.6,59.2,28.73,SSE,152,0.0,0.0,95,0.00,,---,0.00,VWS V14.01,2013-05-22 04:03:00,
2013-05-22 00:04:00,60.6,59.2,28.73,SSE,152,0.0,0.0,95,0.00,,---,0.00,VWS V14.01,2013-05-22 04:04:00,
2013-05-22 00:05:00,60.6,59.2,28.73,SSE,152,0.0,0.0,95,0.00,,---,0.00,VWS V14.01,2013-05-22 04:05:00,
2013-05-22 00:06:00,60.6,59.2,28.73,SSE,152,0.0,0.0,95,0.00,,---,0.00,VWS V14.01,2013-05-22 04:06:00,
2013-05-22 00:07:00,60.6,59.2,28.73,SSE,152,0.0,0.0,95,0.00,,---,0.00,VWS V14.01,2013-05-22 04:07:00,
2013-05-22 00:08:00,60.6,59.2,28.73,SSE,152,0.0,0.0,95,0.00,,---,0.00,VWS V14.01,2013-05-22 04:08:00,
2013-05-22 00:09:00,60.6,59.2,28.73,SSE,152,0.0,0.0,95,0.00,,---,0.00,VWS V14.01,2013-05-22 04:09:00,
2013-05-22 00:10:00,60.6,59.2,28.73,SSE,152,0.0,0.0,95,0.00,,---,0.00,VWS V14.01,2013-05-22 04:10:00,
2013-05-22 00:11:00,60.6,59.2,28.73,SSE,152,0.0,0.0,95,0.00,,---,0.00,VWS V14.01,2013-05-22 04:11:00,
2013-05-22 00:12:00,60.6,59.2,28.73,SSE,152,0.0,2.7,95,0.00,,---,0.00,VWS V14.01,2013-05-22 04:12:00,
2013-05-22 00:13:00,60.6,59.2,28.73,SSE,152,0.0,0.0,95,0.00,,---,0.00,VWS V14.01,2013-05-22 04:13:00,
2013-05-22 00:14:00,60.4,59.0,28.73,SSE,152,0.0,0.0,95,0.00,,---,0.00,VWS V14.01,2013-05-22 04:14:00,
2013-05-22 00:15:00,60.4,59.0,28.73,SSE,152,0.0,0.0,95,0.00,,---,0.00,VWS V14.01,2013-05-22 04:15:00,
2013-05-22 00:16:00,60.4,59.0,28.73,SSE,152,0.0,0.0,95,0.00,,---,0.00,VWS V14.01,2013-05-22 04:16:00,
2013-05-22 00:17:00,60.4,59.0,28.73,SSE,152,0.0,0.0,95,0.00,,---,0.00,VWS V14.01,2013-05-22 04:17:00,
2013-05-22 00:18:00,60.4,59.0,28.73,SSE,152,0.0,0.0,95,0.00,,---,0.00,VWS V14.01,2013-05-22 04:18:00,
2013-05-22 00:19:00,60.3,58.8,28.73,SSE,152,0.0,0.0,95,0.00,,---,0.00,VWS V14.01,2013-05-22 04:19:00,
2013-05-22 00:20:00,60.3,58.8,28.73,SSE,152,0.0,0.0,95,0.00,,---,0.00,VWS V14.01,2013-05-22 04:20:00,
2013-05-22 00:21:00,60.3,58.8,28.73,SSE,152,0.0,0.0,95,0.00,,---,0.00,VWS V14.01,2013-05-22 04:21:00,
2013-05-22 00:22:00,60.1,58.7,28.73,SSE,152,0.0,0.0,95,0.00,,---,0.00,VWS V14.01,2013-05-22 04:22:00,
2013-05-22 00:23:00,60.3,58.8,28.73,SSE,152,0.0,0.0,95,0.00,,---,0.00,VWS V14.01,2013-05-22 04:23:00,
2013-05-22 00:24:00,60.1,58.7,28.73,SSE,152,0.0,0.0,95,0.00,,---,0.00,VWS V14.01,2013-05-22 04:24:00,
2013-05-22 00:25:00,60.1,58.7,28.73,SSE,152,0.0,0.0,95,0.00,,---,0.00,VWS V14.01,2013-05-22 04:25:00,
2013-05-22 00:26:00,60.1,58.7,28.73,SSE,152,0.0,0.0,95,0.00,,---,0.00,VWS V14.01,2013-05-22 04:26:00,
2013-05-22 00:27:00,60.1,58.9,28.73,SSE,152,0.0,0.0,96,0.00,,---,0.00,VWS V14.01,2013-05-22 04:27:00,
2013-05-22 00:28:00,60.1,58.7,28.73,SW,216,0.0,3.6,95,0.00,,---,0.00,VWS V14.01,2013-05-22 04:28:00,
2013-05-22 00:29:00,60.1,58.9,28.73,SW,216,0.0,0.0,96,0.00,,---,0.00,VWS V14.01,2013-05-22 04:29:00,
2013-05-22 00:30:00,59.9,58.8,28.73,SW,216,0.0,0.0,96,0.00,,---,0.00,VWS V14.01,2013-05-22 04:30:00,
2013-05-22 00:31:00,59.9,58.8,28.73,SW,216,0.0,0.0,96,0.00,,---,0.00,VWS V14.01,2013-05-22 04:31:00,
2013-05-22 00:32:00,59.9,58.8,28.73,SW,216,0.0,0.0,96,0.00,,---,0.00,VWS V14.01,2013-05-22 04:32:00,
2013-05-22 00:33:00,59.9,58.8,28.73,SW,216,0.0,0.0,96,0.00,,---,0.00,VWS V14.01,2013-05-22 04:33:00,
2013-05-22 00:34:00,59.9,58.8,28.73,SW,216,0.0,0.0,96,0.00,,---,0.00,VWS V14.01,2013-05-22 04:34:00,
2013-05-22 00:35:00,59.7,58.6,28.73,SW,216,0.0,0.0,96,0.00,,---,0.00,VWS V14.01,2013-05-22 04:35:00,
2013-05-22 00:36:00,59.9,58.8,28.73,SW,216,0.0,0.0,96,0.00,,---,0.00,VWS V14.01,2013-05-22 04:36:00,
2013-05-22 00:37:00,59.9,58.8,28.73,SW,216,0.0,0.0,96,0.00,,---,0.00,VWS V14.01,2013-05-22 04:37:00,
2013-05-22 00:38:00,59.9,58.8,28.73,SW,216,0.0,0.0,96,0.00,,---,0.00,VWS V14.01,2013-05-22 04:38:00,
2013-05-22 00:39:00,59.9,58.8,28.73,SW,216,0.0,0.0,96,0.00,,---,0.00,VWS V14.01,2013-05-22 04:39:00,
2013-05-22 00:40:00,59.9,58.8,28.73,SW,216,0.0,0.0,96,0.00,,---,0.00,VWS V14.01,2013-05-22 04:40:00,
2013-05-22 00:41:00,59.9,58.8,28.73,SW,216,0.0,0.0,96,0.00,,---,0.00,VWS V14.01,2013-05-22 04:41:00,
2013-05-22 00:42:00,59.9,58.8,28.73,SW,216,0.0,0.0,96,0.00,,---,0.00,VWS V14.01,2013-05-22 04:42:00,
2013-05-22 00:43:00,59.9,58.8,28.73,SW,216,0.0,0.0,96,0.00,,---,0.00,VWS V14.01,2013-05-22 04:43:00,
2013-05-22 00:44:00,59.9,58.8,28.73,SW,216,0.0,0.0,96,0.00,,---,0.00,VWS V14.01,2013-05-22 04:44:00,
2013-05-22 00:45:00,59.9,58.8,28.73,SW,216,0.0,0.0,96,0.00,,---,0.00,VWS V14.01,2013-05-22 04:45:00,
2013-05-22 00:46:00,59.7,58.6,28.73,SW,216,0.0,0.0,96,0.00,,---,0.00,VWS V14.01,2013-05-22 04:46:00,
2013-05-22 00:47:00,59.7,58.6,28.73,SW,216,0.0,0.0,96,0.00,,---,0.00,VWS V14.01,2013-05-22 04:47:00,
2013-05-22 00:48:00,59.7,58.6,28.73,SW,216,0.0,0.0,96,0.00,,---,0.00,VWS V14.01,2013-05-22 04:48:00,
2013-05-22 00:49:00,59.7,58.6,28.73,SW,216,0.0,0.0,96,0.00,,---,0.00,VWS V14.01,2013-05-22 04:49:00,
2013-05-22 00:50:00,59.7,58.6,28.73,SW,216,0.0,0.0,96,0.00,,---,0.00,VWS V14.01,2013-05-22 04:50:00,
2013-05-22 00:51:00,59.7,58.6,28.73,SW,216,0.0,0.0,96,0.00,,---,0.00,VWS V14.01,2013-05-22 04:51:00,
2013-05-22 00:52:00,59.7,58.6,28.73,SW,216,0.0,0.0,96,0.00,,---,0.00,VWS V14.01,2013-05-22 04:52:00,
2013-05-22 00:53:00,59.7,58.6,28.73,SW,216,0.0,0.0,96,0.00,,---,0.00,VWS V14.01,2013-05-22 04:53:00,
2013-05-22 00:54:00,59.7,58.6,28.73,SW,216,0.0,0.0,96,0.00,,---,0.00,VWS V14.01,2013-05-22 04:54:00,
2013-05-22 00:55:00,59.7,58.9,28.73,SW,216,0.0,0.0,97,0.00,,---,0.00,VWS V14.01,2013-05-22 04:55:00,
2013-05-22 00:56:00,59.7,58.9,28.73,SW,216,0.0,0.0,97,0.00,,---,0.00,VWS V14.01,2013-05-22 04:56:00,
2013-05-22 00:57:00,59.7,58.9,28.73,SW,216,0.0,0.0,97,0.00,,---,0.00,VWS V14.01,2013-05-22 04:57:00,
2013-05-22 00:58:00,59.7,58.9,28.73,SW,216,0.0,0.0,97,0.00,,---,0.00,VWS V14.01,2013-05-22 04:58:00,
2013-05-22 00:59:00,59.7,58.9,28.73,SW,216,0.0,2.7,97,0.00,,---,0.00,VWS V14.01,2013-05-22 04:59:00,
2013-05-22 01:00:00,59.5,58.7,28.73,SW,216,0.0,0.0,97,0.00,,---,0.00,VWS V14.01,2013-05-22 05:00:00,
2013-05-22 01:01:00,59.5,58.7,28.73,SW,216,0.0,0.0,97,0.00,,---,0.00,VWS V14.01,2013-05-22 05:01:00,
2013-05-22 01:02:00,59.5,58.7,28.73,SW,216,0.0,0.0,97,0.00,,---,0.00,VWS V14.01,2013-05-22 05:02:00,
2013-05-22 01:03:00,59.4,58.5,28.73,SW,216,0.0,0.0,97,0.00,,---,0.00,VWS V14.01,2013-05-22 05:03:00,
2013-05-22 01:04:00,59.4,58.5,28.73,SW,216,0.0,0.0,97,0.00,,---,0.00,VWS V14.01,2013-05-22 05:04:00,
2013-05-22 01:05:00,59.5,58.7,28.73,SW,216,0.0,0.0,97,0.00,,---,0.00,VWS V14.01,2013-05-22 05:05:00,
2013-05-22 01:06:00,59.5,58.7,28.73,SW,216,0.0,0.0,97,0.00,,---,0.00,VWS V14.01,2013-05-22 05:06:00,
2013-05-22 01:07:00,59.5,58.7,28.73,SW,216,0.0,0.0,97,0.00,,---,0.00,VWS V14.01,2013-05-22 05:07:00,
2013-05-22 01:08:00,59.5,58.7,28.73,SW,216,0.0,0.0,97,0.00,,---,0.00,VWS V14.01,2013-05-22 05:08:00,
2013-05-22 01:09:00,59.5,58.7,28.73,SW,216,0.0,0.0,97,0.00,,---,0.00,VWS V14.01,2013-05-22 05:09:00,
2013-05-22 01:10:00,59.5,58.7,28.73,SW,216,0.0,0.0,97,0.00,,---,0.00,VWS V14.01,2013-05-22 05:10:00,
2013-05-22 01:11:00,59.5,58.7,28.73,SW,216,0.0,0.0,97,0.00,,---,0.00,VWS V14.01,2013-05-22 05:11:00,
2013-05-22 01:12:00,59.5,58.7,28.73,SW,216,0.0,0.0,97,0.00,,---,0.00,VWS V14.01,2013-05-22 05:12:00,
2013-05-22 01:13:00,59.5,58.7,28.73,SW,216,0.0,0.0,97,0.00,,---,0.00,VWS V14.01,2013-05-22 05:13:00,
2013-05-22 01:14:00,59.5,58.7,28.73,SW,216,0.0,0.0,97,0.00,,---,0.00,VWS V14.01,2013-05-22 05:14:00,
2013-05-22 01:15:00,59.5,58.7,28.73,SW,216,0.0,0.0,97,0.00,,---,0.00,VWS V14.01,2013-05-22 05:15:00,
2013-05-22 01:16:00,59.5,58.7,28.73,SW,216,0.0,0.0,97,0.00,,---,0.00,VWS V14.01,2013-05-22 05:16:00,
2013-05-22 01:17:00,59.5,58.7,28.73,SW,216,0.0,0.0,97,0.00,,---,0.00,VWS V14.01,2013-05-22 05:17:00,
2013-05-22 01:18:00,59.5,58.7,28.73,SW,216,0.0,0.0,97,0.00,,---,0.00,VWS V14.01,2013-05-22 05:18:00,
2013-05-22 01:19:00,59.5,58.7,28.73,SW,216,0.0,0.0,97,0.00,,---,0.00,VWS V14.01,2013-05-22 05:19:00,
2013-05-22 01:20:00,59.5,58.7,28.73,SW,216,0.0,0.0,97,0.00,,---,0.00,VWS V14.01,2013-05-22 05:20:00,
2013-05-22 01:21:00,59.7,58.9,28.73,SW,216,0.0,0.0,97,0.00,,---,0.00,VWS V14.01,2013-05-22 05:21:00,
2013-05-22 01:22:00,59.7,58.9,28.73,SW,216,0.0,0.0,97,0.00,,---,0.00,VWS V14.01,2013-05-22 05:22:00,
2013-05-22 01:23:00,59.7,58.9,28.73,SW,216,0.0,0.0,97,0.00,,---,0.00,VWS V14.01,2013-05-22 05:23:00,
2013-05-22 01:24:00,59.7,58.9,28.73,SW,216,0.0,0.0,97,0.00,,---,0.00,VWS V14.01,2013-05-22 05:24:00,
2013-05-22 01:25:00,59.7,58.9,28.73,SW,216,0.0,0.0,97,0.00,,---,0.00,VWS V14.01,2013-05-22 05:25:00,
2013-05-22 01:26:00,59.5,58.7,28.73,SW,216,0.0,0.0,97,0.00,,---,0.00,VWS V14.01,2013-05-22 05:26:00,
2013-05-22 01:27:00,59.5,58.7,28.73,SW,216,0.0,0.0,97,0.00,,---,0.00,VWS V14.01,2013-05-22 05:27:00,
2013-05-22 01:28:00,59.5,58.7,28.73,SW,216,0.0,0.0,97,0.00,,---,0.00,VWS V14.01,2013-05-22 05:28:00,
2013-05-22 01:29:00,59.5,58.7,28.73,SW,216,0.0,0.0,97,0.00,,---,0.00,VWS V14.01,2013-05-22 05:29:00,
2013-05-22 01:30:00,59.5,58.7,28.73,SW,216,0.0,0.0,97,0.00,,---,0.00,VWS V14.01,2013-05-22 05:30:00,
2013-05-22 01:31:00,59.5,58.7,28.73,SW,216,0.0,0.0,97,0.00,,---,0.00,VWS V14.01,2013-05-22 05:31:00,
2013-05-22 01:32:00,59.5,58.7,28.73,SW,216,0.0,0.0,97,0.00,,---,0.00,VWS V14.01,2013-05-22 05:32:00,
2013-05-22 01:33:00,59.5,58.7,28.73,SW,216,0.0,0.0,97,0.00,,---,0.00,VWS V14.01,2013-05-22 05:33:00,
2013-05-22 01:34:00,59.5,58.7,28.73,SW,216,0.0,0.0,97,0.00,,---,0.00,VWS V14.01,2013-05-22 05:34:00,
2013-05-22 01:35:00,59.7,58.9,28.73,SW,216,0.0,0.0,97,0.00,,---,0.00,VWS V14.01,2013-05-22 05:35:00,
2013-05-22 01:36:00,59.7,58.9,28.73,SW,216,0.0,0.0,97,0.00,,---,0.00,VWS V14.01,2013-05-22 05:36:00,
2013-05-22 01:40:00,60.3,59.4,28.73,SW,216,0.0,0.0,97,0.00,,---,0.00,VWS V14.01,2013-05-22 05:40:00,
2013-05-22 01:43:00,60.4,59.6,28.73,SW,228,0.0,0.0,97,0.00,,---,0.00,VWS V14.01,2013-05-22 05:43:00,
2013-05-22 01:47:00,60.8,60.0,28.73,West,264,0.0,5.4,97,0.00,,---,0.00,VWS V14.01,2013-05-22 05:47:00,
2013-05-22 01:50:00,70.0,55.9,28.73,SE,138,0.0,0.0,61,0.00,,---,0.00,VWS V14.01,2013-05-22 05:50:00,
2013-05-22 01:55:00,70.0,56.8,28.73,SW,223,0.0,0.0,63,0.00,,---,0.00,VWS V14.01,2013-05-22 05:55:00,
2013-05-22 01:56:00,61.0,60.1,28.73,West,266,0.0,0.0,97,0.04,,---,0.04,VWS V14.01,2013-05-22 05:56:00,
2013-05-22 01:58:00,61.2,60.3,28.73,West,261,0.0,0.0,97,0.04,,---,0.04,VWS V14.01,2013-05-22 05:58:00,
2013-05-22 01:59:00,61.2,60.3,28.73,West,261,0.0,2.7,97,0.04,,---,0.04,VWS V14.01,2013-05-22 05:59:00,
2013-05-22 02:00:00,69.6,56.9,28.73,SSW,204,0.0,0.0,64,0.00,,---,0.00,VWS V14.01,2013-05-22 06:00:00,
2013-05-22 02:01:00,61.2,60.3,28.73,West,261,0.0,0.0,97,0.04,,---,0.04,VWS V14.01,2013-05-22 06:01:00,
2013-05-22 02:02:00,61.2,60.3,28.73,West,261,0.0,0.0,97,0.04,,---,0.04,VWS V14.01,2013-05-22 06:02:00,
2013-05-22 02:03:00,61.2,60.3,28.73,West,261,0.0,0.0,97,0.04,,---,0.04,VWS V14.01,2013-05-22 06:03:00,
2013-05-22 02:04:00,61.2,60.3,28.73,West,261,0.0,0.0,97,0.04,,---,0.04,VWS V14.01,2013-05-22 06:04:00,
2013-05-22 02:07:00,69.4,57.2,28.73,SW,215,0.0,4.9,65,0.00,,---,0.00,VWS V14.01,2013-05-22 06:07:00,
2013-05-22 02:13:00,61.3,60.5,28.73,West,261,0.0,2.7,97,0.04,,---,0.04,VWS V14.01,2013-05-22 06:13:00,
2013-05-22 02:14:00,69.1,57.3,28.73,West,275,5.4,5.4,66,0.00,,---,0.00,VWS V14.01,2013-05-22 06:14:00,
2013-05-22 02:21:00,68.9,57.5,28.73,WSW,246,3.1,5.4,67,0.00,,---,0.00,VWS V14.01,2013-05-22 06:21:00,
2013-05-22 02:23:00,61.5,60.7,28.73,West,261,0.0,0.0,97,0.04,,---,0.04,VWS V14.01,2013-05-22 06:23:00,
2013-05-22 02:24:00,61.5,60.7,28.73,West,261,0.0,0.0,97,0.04,,---,0.04,VWS V14.01,2013-05-22 06:24:00,
2013-05-22 02:26:00,68.9,57.9,28.73,SSW,208,0.0,4.5,68,0.00,,---,0.00,VWS V14.01,2013-05-22 06:26:00,
2013-05-22 02:32:00,68.7,58.2,28.73,SSE,154,4.0,5.8,69,0.00,,---,0.00,VWS V14.01,2013-05-22 06:32:00,
2013-05-22 02:37:00,68.7,58.5,28.73,WSW,246,3.1,3.1,70,0.00,,---,0.00,VWS V14.01,2013-05-22 06:37:00,
2013-05-22 02:47:00,68.7,59.3,28.73,SSW,196,2.7,3.1,72,0.00,,---,0.00,VWS V14.01,2013-05-22 06:47:00,
2013-05-22 02:56:00,68.9,59.5,28.73,WSW,242,3.1,4.0,72,0.00,,---,0.00,VWS V14.01,2013-05-22 06:56:00,
2013-05-22 03:02:00,68.9,59.5,28.73,WSW,239,2.7,4.5,72,0.00,,---,0.00,VWS V14.01,2013-05-22 07:02:00,
2013-05-22 03:07:00,68.9,59.5,28.73,SW,215,3.6,5.8,72,0.00,,---,0.00,VWS V14.01,2013-05-22 07:07:00,
2013-05-22 03:12:00,68.9,59.9,28.73,SW,236,4.9,6.3,73,0.00,,---,0.00,VWS V14.01,2013-05-22 07:12:00,
2013-05-22 03:18:00,68.7,60.1,28.70,SW,231,0.0,3.6,74,0.00,,---,0.00,VWS V14.01,2013-05-22 07:18:00,
2013-05-22 03:23:00,68.7,60.5,28.70,WSW,257,5.8,5.8,75,0.00,,---,0.00,VWS V14.01,2013-05-22 07:23:00,
2013-05-22 03:28:00,68.7,60.9,28.70,SSW,210,3.1,3.1,76,0.00,,---,0.00,VWS V14.01,2013-05-22 07:28:00,
2013-05-22 03:33:00,68.7,60.9,28.70,SW,234,3.1,4.5,76,0.00,,---,0.00,VWS V14.01,2013-05-22 07:33:00,
2013-05-22 03:38:00,68.7,60.9,28.70,SW,229,2.7,6.9,76,0.00,,---,0.00,VWS V14.01,2013-05-22 07:38:00,
2013-05-22 03:43:00,68.7,60.9,28.70,SSW,208,3.1,3.1,76,0.00,,---,0.00,VWS V14.01,2013-05-22 07:43:00,
2013-05-22 03:48:00,68.7,60.9,28.70,South,171,3.6,7.4,76,0.00,,---,0.00,VWS V14.01,2013-05-22 07:48:00,
2013-05-22 03:53:00,68.5,60.7,28.70,WSW,242,0.0,8.7,76,0.00,,---,0.00,VWS V14.01,2013-05-22 07:53:00,
2013-05-22 03:58:00,68.5,60.7,28.70,WSW,239,6.9,9.2,76,0.00,,---,0.00,VWS V14.01,2013-05-22 07:58:00,
2013-05-22 04:03:00,68.7,60.5,28.70,WSW,245,6.9,6.9,75,0.00,,---,0.00,VWS V14.01,2013-05-22 08:03:00,
2013-05-22 04:08:00,68.7,60.5,28.70,SSE,159,4.9,6.9,75,0.00,,---,0.00,VWS V14.01,2013-05-22 08:08:00,
2013-05-22 04:13:00,68.7,60.5,28.70,WSW,253,3.1,4.9,75,0.00,,---,0.00,VWS V14.01,2013-05-22 08:13:00,
2013-05-22 04:18:00,68.7,60.1,28.70,SE,132,0.0,4.9,74,0.00,,---,0.00,VWS V14.01,2013-05-22 08:18:00,
2013-05-22 04:23:00,68.7,60.1,28.70,SSW,196,0.0,3.6,74,0.00,,---,0.00,VWS V14.01,2013-05-22 08:23:00,
2013-05-22 04:28:00,68.7,60.1,28.70,East,87,3.1,5.4,74,0.00,,---,0.00,VWS V14.01,2013-05-22 08:28:00,
2013-05-22 04:33:00,68.7,60.1,28.70,West,274,0.0,5.4,74,0.00,,---,0.00,VWS V14.01,2013-05-22 08:33:00,
2013-05-22 04:38:00,68.5,59.9,28.70,WSW,237,5.4,6.7,74,0.00,,---,0.00,VWS V14.01,2013-05-22 08:38:00,
2013-05-22 04:43:00,68.5,59.9,28.70,West,274,3.6,5.8,74,0.00,,---,0.00,VWS V14.01,2013-05-22 08:43:00,
2013-05-22 04:48:00,68.4,59.4,28.70,SW,217,0.0,5.4,73,0.00,,---,0.00,VWS V14.01,2013-05-22 08:48:00,
2013-05-22 04:53:00,68.2,59.6,28.70,SSW,202,0.0,5.8,74,0.00,,---,0.00,VWS V14.01,2013-05-22 08:53:00,
2013-05-22 04:58:00,68.0,60.2,28.70,WSW,243,0.0,6.7,76,0.00,,---,0.00,VWS V14.01,2013-05-22 08:58:00,
2013-05-22 05:03:00,68.0,60.5,28.70,West,268,5.4,5.8,77,0.00,,---,0.00,VWS V14.01,2013-05-22 09:03:00,
2013-05-22 05:08:00,68.0,60.9,28.70,SW,235,0.0,3.6,78,0.00,,---,0.00,VWS V14.01,2013-05-22 09:08:00,
2013-05-22 05:14:00,68.0,61.2,28.70,WSW,238,3.6,4.0,79,0.00,,---,0.00,VWS V14.01,2013-05-22 09:14:00,
2013-05-22 05:19:00,68.0,60.9,28.70,WSW,251,4.5,6.3,78,0.00,,---,0.00,VWS V14.01,2013-05-22 09:19:00,
2013-05-22 05:24:00,68.0,60.9,28.70,WNW,288,0.0,4.5,78,0.00,,---,0.00,VWS V14.01,2013-05-22 09:24:00,
2013-05-22 05:31:00,67.8,59.6,28.70,ESE,108,0.0,5.4,75,0.00,,---,0.00,VWS V14.01,2013-05-22 09:31:00,
2013-05-22 05:36:00,67.8,58.9,28.70,South,189,4.0,4.9,73,0.00,,---,0.00,VWS V14.01,2013-05-22 09:36:00,
2013-05-22 05:41:00,68.0,59.0,28.70,SE,139,0.0,4.9,73,0.00,,---,0.00,VWS V14.01,2013-05-22 09:41:00,
2013-05-22 05:46:00,68.0,59.8,28.70,WSW,246,4.0,5.4,75,0.00,,---,0.00,VWS V14.01,2013-05-22 09:46:00,
2013-05-22 05:51:00,67.8,60.3,28.70,WSW,254,4.5,6.3,77,0.00,,---,0.00,VWS V14.01,2013-05-22 09:51:00,
2013-05-22 05:56:00,67.8,60.3,28.70,WSW,241,3.6,4.0,77,0.00,,---,0.00,VWS V14.01,2013-05-22 09:56:00,
2013-05-22 06:01:00,67.6,60.5,28.70,SSE,150,4.0,5.4,78,0.00,,---,0.00,VWS V14.01,2013-05-22 10:01:00,
2013-05-22 06:06:00,67.6,60.5,28.70,West,269,2.7,2.7,78,0.00,,---,0.00,VWS V14.01,2013-05-22 10:06:00,
2013-05-22 06:11:00,67.6,60.5,28.70,WNW,286,0.0,4.0,78,0.00,,---,0.00,VWS V14.01,2013-05-22 10:11:00,
2013-05-22 06:16:00,67.6,60.5,28.70,WSW,247,2.7,4.0,78,0.00,,---,0.00,VWS V14.01,2013-05-22 10:16:00,
2013-05-22 06:21:00,67.6,60.9,28.70,NNE,20,2.7,4.0,79,0.00,,---,0.00,VWS V14.01,2013-05-22 10:21:00,
2013-05-22 06:27:00,67.6,61.3,28.70,SW,226,0.0,5.4,80,0.00,,---,0.00,VWS V14.01,2013-05-22 10:27:00,
2013-05-22 06:32:00,67.6,61.3,28.70,SE,126,4.5,4.5,80,0.00,,---,0.00,VWS V14.01,2013-05-22 10:32:00,
2013-05-22 06:37:00,67.5,61.8,28.70,SW,215,0.0,2.7,82,0.00,,---,0.00,VWS V14.01,2013-05-22 10:37:00,
2013-05-22 06:42:00,67.3,61.6,28.70,SW,227,4.0,4.9,82,0.00,,---,0.00,VWS V14.01,2013-05-22 10:42:00,
2013-05-22 06:47:00,67.1,61.8,28.70,SE,146,3.1,5.4,83,0.00,,---,0.00,VWS V14.01,2013-05-22 10:47:00,
2013-05-22 06:52:00,67.1,62.1,28.70,SSE,153,0.0,4.9,84,0.00,,---,0.00,VWS V14.01,2013-05-22 10:52:00,
2013-05-22 06:57:00,67.1,62.5,28.70,SSE,152,4.0,5.4,85,0.00,,---,0.00,VWS V14.01,2013-05-22 10:57:00,
2013-05-22 07:02:00,66.9,61.9,28.70,SE,136,3.1,5.4,84,0.00,,---,0.00,VWS V14.01,2013-05-22 11:02:00,
2013-05-22 07:07:00,66.9,61.9,28.70,East,100,3.1,4.5,84,0.00,,---,0.00,VWS V14.01,2013-05-22 11:07:00,
2013-05-22 07:12:00,66.9,61.9,28.70,SW,228,0.0,2.7,84,0.00,,---,0.00,VWS V14.01,2013-05-22 11:12:00,
2013-05-22 07:17:00,66.9,61.9,28.70,WSW,255,2.7,5.8,84,0.00,,---,0.00,VWS V14.01,2013-05-22 11:17:00,
2013-05-22 07:22:00,67.1,62.1,28.70,SSE,164,4.0,5.4,84,0.00,,---,0.00,VWS V14.01,2013-05-22 11:22:00,
2013-05-22 07:27:00,67.1,61.8,28.70,WSW,238,0.0,6.3,83,0.00,,---,0.00,VWS V14.01,2013-05-22 11:27:00,
2013-05-22 07:32:00,67.1,61.8,28.73,SSE,148,0.0,6.3,83,0.00,,---,0.00,VWS V14.01,2013-05-22 11:32:00,
2013-05-22 07:37:00,67.1,61.8,28.73,WSW,244,4.0,4.5,83,0.00,,---,0.00,VWS V14.01,2013-05-22 11:37:00,
2013-05-22 07:42:00,67.1,61.8,28.73,SW,221,4.5,4.5,83,0.00,,---,0.00,VWS V14.01,2013-05-22 11:42:00,
2013-05-22 07:48:00,67.1,62.5,28.73,SSW,205,0.0,4.9,85,0.00,,---,0.00,VWS V14.01,2013-05-22 11:48:00,
2013-05-22 07:53:00,67.1,62.5,28.73,SSE,153,0.0,3.1,85,0.00,,---,0.00,VWS V14.01,2013-05-22 11:53:00,
2013-05-22 07:58:00,67.1,62.5,28.73,WSW,254,0.0,0.0,85,0.00,,---,0.00,VWS V14.01,2013-05-22 11:58:00,
2013-05-22 08:03:00,67.1,62.5,28.70,West,262,0.0,4.5,85,0.00,,---,0.00,VWS V14.01,2013-05-22 12:03:00,
2013-05-22 08:08:00,66.9,62.3,28.70,SE,145,0.0,0.0,85,0.00,,---,0.00,VWS V14.01,2013-05-22 12:08:00,
2013-05-22 08:13:00,66.9,62.3,28.70,ESE,118,4.9,5.4,85,0.00,,---,0.00,VWS V14.01,2013-05-22 12:13:00,
2013-05-22 08:18:00,66.9,62.3,28.70,South,175,0.0,0.0,85,0.00,,---,0.00,VWS V14.01,2013-05-22 12:18:00,
2013-05-22 08:24:00,66.9,61.9,28.70,SSW,213,2.7,6.9,84,0.00,,---,0.00,VWS V14.01,2013-05-22 12:24:00,
2013-05-22 08:29:00,67.1,61.8,28.70,West,265,0.0,0.0,83,0.00,,---,0.00,VWS V14.01,2013-05-22 12:29:00,
2013-05-22 08:34:00,67.3,61.6,28.70,West,265,3.6,3.6,82,0.00,,---,0.00,VWS V14.01,2013-05-22 12:34:00,
2013-05-22 08:39:00,67.8,62.1,28.70,SSW,211,3.6,6.9,82,0.00,,---,0.00,VWS V14.01,2013-05-22 12:39:00,
2013-05-22 08:44:00,68.4,61.6,28.70,SSE,153,4.5,5.8,79,0.00,,---,0.00,VWS V14.01,2013-05-22 12:44:00,
2013-05-22 08:49:00,68.5,60.7,28.70,SSW,196,3.1,6.9,76,0.00,,---,0.00,VWS V14.01,2013-05-22 12:49:00,
2013-05-22 08:54:00,68.7,60.1,28.70,West,271,0.0,3.1,74,0.00,,---,0.00,VWS V14.01,2013-05-22 12:54:00,
2013-05-22 08:59:00,68.7,60.1,28.70,WSW,250,4.0,6.9,74,0.00,,---,0.00,VWS V14.01,2013-05-22 12:59:00,
2013-05-22 09:04:00,68.5,59.5,28.70,SW,228,0.0,5.8,73,0.00,,---,0.00,VWS V14.01,2013-05-22 13:04:00,
2013-05-22 09:09:00,68.4,59.8,28.70,South,179,0.0,3.1,74,0.00,,---,0.00,VWS V14.01,2013-05-22 13:09:00,
2013-05-22 09:14:00,68.2,60.3,28.70,South,179,4.0,6.7,76,0.00,,---,0.00,VWS V14.01,2013-05-22 13:14:00,
2013-05-22 09:19:00,67.6,60.5,28.70,West,262,0.0,0.0,78,0.00,,---,0.00,VWS V14.01,2013-05-22 13:19:00,
2013-05-22 09:24:00,67.3,60.9,28.70,SSW,194,0.0,5.4,80,0.00,,---,0.00,VWS V14.01,2013-05-22 13:24:00,
2013-05-22 09:29:00,66.9,61.2,28.73,SSW,212,3.6,8.3,82,0.00,,---,0.00,VWS V14.01,2013-05-22 13:29:00,
2013-05-22 09:34:00,66.6,61.9,28.73,WSW,238,0.0,3.6,85,0.00,,---,0.00,VWS V14.01,2013-05-22 13:34:00,
2013-05-22 09:39:00,66.2,62.2,28.73,WSW,255,3.6,6.3,87,0.00,,---,0.00,VWS V14.01,2013-05-22 13:39:00,
2013-05-22 09:44:00,65.8,62.5,28.73,SW,234,4.0,7.8,89,0.08,,---,0.08,VWS V14.01,2013-05-22 13:44:00,
2013-05-22 09:49:00,65.1,62.1,28.73,SSW,206,4.5,6.7,90,0.12,,---,0.12,VWS V14.01,2013-05-22 13:49:00,
2013-05-22 09:54:00,64.6,61.9,28.73,SW,222,4.0,6.3,91,0.12,,---,0.12,VWS V14.01,2013-05-22 13:54:00,
2013-05-22 09:59:00,64.4,62.0,28.70,SW,232,0.0,3.1,92,0.12,,---,0.12,VWS V14.01,2013-05-22 13:59:00,
2013-05-22 10:04:00,64.8,62.4,28.70,SW,223,0.0,0.0,92,0.12,,---,0.12,VWS V14.01,2013-05-22 14:04:00,
2013-05-22 10:09:00,65.1,63.0,28.70,WSW,240,3.1,3.6,93,0.12,,---,0.12,VWS V14.01,2013-05-22 14:09:00,
2013-05-22 10:14:00,64.8,62.7,28.70,WSW,238,0.0,0.0,93,0.12,,---,0.12,VWS V14.01,2013-05-22 14:14:00,
2013-05-22 10:19:00,65.1,63.0,28.70,SSE,150,2.7,2.7,93,0.12,,---,0.12,VWS V14.01,2013-05-22 14:19:00,
2013-05-22 10:25:00,65.8,63.8,28.70,SE,139,2.7,5.4,93,0.12,,---,0.12,VWS V14.01,2013-05-22 14:25:00,
2013-05-22 10:30:00,66.9,64.8,28.70,SSE,149,2.7,4.5,93,0.12,,---,0.12,VWS V14.01,2013-05-22 14:30:00,
2013-05-22 10:35:00,67.8,66.0,28.70,SSE,160,0.0,3.1,94,0.12,,---,0.12,VWS V14.01,2013-05-22 14:35:00,
2013-05-22 10:40:00,67.8,65.7,28.70,WSW,248,0.0,3.1,93,0.12,,---,0.12,VWS V14.01,2013-05-22 14:40:00,
2013-05-22 10:45:00,68.7,66.0,28.70,SSW,202,0.0,4.5,91,0.04,,---,0.12,VWS V14.01,2013-05-22 14:45:00,
2013-05-22 10:50:00,69.3,65.2,28.70,SE,135,0.0,0.0,87,0.00,,---,0.12,VWS V14.01,2013-05-22 14:50:00,
2013-05-22 10:55:00,69.4,63.4,28.70,West,276,3.1,6.9,81,0.00,,---,0.12,VWS V14.01,2013-05-22 14:55:00,
2013-05-22 11:00:00,69.4,62.7,28.70,West,265,3.6,5.4,79,0.00,,---,0.12,VWS V14.01,2013-05-22 15:00:00,
2013-05-22 11:05:00,70.3,63.9,28.70,WNW,294,2.7,4.5,80,0.00,,---,0.12,VWS V14.01,2013-05-22 15:05:00,
2013-05-22 11:10:00,71.1,62.4,28.70,SE,129,3.6,7.8,74,0.00,,---,0.12,VWS V14.01,2013-05-22 15:10:00,
2013-05-22 11:15:00,72.5,61.8,28.70,South,177,5.8,8.7,69,0.00,,---,0.12,VWS V14.01,2013-05-22 15:15:00,
2013-05-22 11:20:00,72.9,60.0,28.70,WSW,254,6.7,7.8,64,0.00,,---,0.12,VWS V14.01,2013-05-22 15:20:00,
2013-05-22 11:25:00,73.2,57.6,28.70,SW,221,4.5,6.7,58,0.00,,---,0.12,VWS V14.01,2013-05-22 15:25:00,
2013-05-22 11:30:00,73.9,58.2,28.70,ESE,123,3.1,3.1,58,0.00,,---,0.12,VWS V14.01,2013-05-22 15:30:00,
2013-05-22 11:35:00,74.1,54.9,28.70,SSW,192,0.0,4.9,51,0.00,,---,0.12,VWS V14.01,2013-05-22 15:35:00,
2013-05-22 11:40:00,74.8,53.8,28.70,SSE,152,4.0,6.3,48,0.00,,---,0.12,VWS V14.01,2013-05-22 15:40:00,
2013-05-22 11:45:00,76.1,53.8,28.70,SSE,168,4.0,5.8,46,0.00,,---,0.12,VWS V14.01,2013-05-22 15:45:00,
2013-05-22 11:50:00,76.8,52.0,28.70,WSW,243,2.7,5.4,42,0.00,,---,0.12,VWS V14.01,2013-05-22 15:50:00,
2013-05-22 11:55:00,77.0,51.5,28.70,WSW,252,5.4,5.4,41,0.00,,---,0.12,VWS V14.01,2013-05-22 15:55:00,
2013-05-22 12:00:00,77.7,50.8,28.70,WSW,237,2.7,9.2,39,0.00,,---,0.12,VWS V14.01,2013-05-22 16:00:00,
2013-05-22 12:05:00,77.7,48.7,28.70,West,281,3.6,8.3,36,0.00,,---,0.12,VWS V14.01,2013-05-22 16:05:00,
2013-05-22 12:11:00,78.4,50.0,28.70,SSW,201,5.8,6.9,37,0.00,,---,0.12,VWS V14.01,2013-05-22 16:11:00,
2013-05-22 12:16:00,79.2,49.2,28.70,SE,133,0.0,4.0,35,0.00,,---,0.12,VWS V14.01,2013-05-22 16:16:00,
2013-05-22 12:21:00,80.2,47.7,28.70,SW,227,7.8,7.8,32,0.00,,---,0.12,VWS V14.01,2013-05-22 16:21:00,
2013-05-22 12:26:00,79.7,46.4,28.70,SSE,149,0.0,9.2,31,0.00,,---,0.12,VWS V14.01,2013-05-22 16:26:00,
2013-05-22 12:31:00,81.5,48.0,28.70,SW,235,0.0,5.4,31,0.00,,---,0.12,VWS V14.01,2013-05-22 16:31:00,
2013-05-22 12:36:00,81.7,46.4,28.70,SSW,193,3.1,9.6,29,0.00,,---,0.12,VWS V14.01,2013-05-22 16:36:00,
2013-05-22 12:41:00,80.4,46.2,28.70,SSW,202,4.9,11.6,30,0.00,,---,0.12,VWS V14.01,2013-05-22 16:41:00,
2013-05-22 12:46:00,78.6,45.5,28.70,SSW,202,6.9,8.7,31,0.00,,---,0.12,VWS V14.01,2013-05-22 16:46:00,
2013-05-22 12:51:00,77.7,47.1,28.70,South,170,4.5,5.4,34,0.00,,---,0.12,VWS V14.01,2013-05-22 16:51:00,
2013-05-22 12:56:00,77.7,47.1,28.70,SSE,166,0.0,11.0,34,0.00,,---,0.12,VWS V14.01,2013-05-22 16:56:00,
2013-05-22 13:01:00,77.4,46.8,28.70,West,260,4.0,9.6,34,0.00,,---,0.12,VWS V14.01,2013-05-22 17:01:00,
2013-05-22 13:07:00,76.8,48.6,28.70,SW,221,3.6,7.8,37,0.00,,---,0.12,VWS V14.01,2013-05-22 17:07:00,
2013-05-22 13:12:00,76.3,48.1,28.70,SE,140,0.0,9.6,37,0.00,,---,0.12,VWS V14.01,2013-05-22 17:12:00,
2013-05-22 13:17:00,77.9,50.3,28.70,WSW,244,6.9,7.8,38,0.00,,---,0.12,VWS V14.01,2013-05-22 17:17:00,
2013-05-22 13:22:00,79.2,49.2,28.70,WNW,298,5.8,6.3,35,0.00,,---,0.12,VWS V14.01,2013-05-22 17:22:00,
2013-05-22 13:27:00,79.0,47.5,28.70,WNW,301,0.0,6.7,33,0.00,,---,0.12,VWS V14.01,2013-05-22 17:27:00,
2013-05-22 13:32:00,78.1,46.7,28.70,WSW,242,2.7,6.9,33,0.00,,---,0.12,VWS V14.01,2013-05-22 17:32:00,
2013-05-22 13:37:00,78.3,48.4,28.70,WNW,286,9.2,11.2,35,0.00,,---,0.12,VWS V14.01,2013-05-22 17:37:00,
2013-05-22 13:42:00,79.0,48.2,28.70,South,187,3.6,13.0,34,0.00,,---,0.12,VWS V14.01,2013-05-22 17:42:00,
2013-05-22 13:47:00,80.2,48.5,28.70,WSW,237,3.1,6.9,33,0.00,,---,0.12,VWS V14.01,2013-05-22 17:47:00,
2013-05-22 13:52:00,80.8,46.5,28.70,SW,223,8.7,11.0,30,0.00,,---,0.12,VWS V14.01,2013-05-22 17:52:00,
2013-05-22 13:57:00,78.6,46.3,28.70,WSW,254,7.4,14.8,32,0.00,,---,0.12,VWS V14.01,2013-05-22 17:57:00,
2013-05-22 14:02:00,78.4,47.8,28.70,SSW,203,4.5,8.3,34,0.00,,---,0.12,VWS V14.01,2013-05-22 18:02:00,
2013-05-22 14:07:00,77.5,50.0,28.70,SSW,193,5.4,6.7,38,0.00,,---,0.12,VWS V14.01,2013-05-22 18:07:00,
2013-05-22 14:13:00,74.7,55.3,28.70,WSW,249,4.0,4.0,51,0.00,,---,0.12,VWS V14.01,2013-05-22 18:13:00,
2013-05-22 14:18:00,70.7,59.2,28.70,SE,136,4.9,9.2,67,0.04,,---,0.16,VWS V14.01,2013-05-22 18:18:00,
2013-05-22 14:23:00,67.8,60.0,28.70,West,271,6.9,6.9,76,0.08,,---,0.20,VWS V14.01,2013-05-22 18:23:00,
2013-05-22 14:28:00,67.8,62.5,28.70,South,169,4.5,7.4,83,0.08,,---,0.20,VWS V14.01,2013-05-22 18:28:00,
2013-05-22 14:33:00,68.4,64.7,28.70,North,351,3.1,5.4,88,0.08,,---,0.20,VWS V14.01,2013-05-22 18:33:00,
2013-05-22 14:38:00,69.3,65.9,28.70,SW,218,4.9,7.4,89,0.08,,---,0.20,VWS V14.01,2013-05-22 18:38:00,
2013-05-22 14:43:00,69.6,65.9,28.70,West,277,6.7,6.7,88,0.08,,---,0.20,VWS V14.01,2013-05-22 18:43:00,
2013-05-22 14:48:00,71.2,67.2,28.70,SW,217,4.5,6.9,87,0.08,,---,0.20,VWS V14.01,2013-05-22 18:48:00,
2013-05-22 14:53:00,72.7,63.1,28.70,West,276,5.4,7.4,72,0.08,,---,0.20,VWS V14.01,2013-05-22 18:53:00,
2013-05-22 14:58:00,72.7,56.6,28.70,WSW,257,6.3,12.1,57,0.08,,---,0.20,VWS V14.01,2013-05-22 18:58:00,
2013-05-22 15:03:00,73.9,57.8,28.70,WNW,290,8.3,11.6,57,0.08,,---,0.20,VWS V14.01,2013-05-22 19:03:00,
2013-05-22 15:08:00,75.6,55.6,28.70,SW,223,7.4,7.8,50,0.08,,---,0.20,VWS V14.01,2013-05-22 19:08:00,
2013-05-22 15:13:00,75.9,53.1,28.70,SW,229,10.5,13.4,45,0.08,,---,0.20,VWS V14.01,2013-05-22 19:13:00,
2013-05-22 15:18:00,74.5,51.8,28.70,West,268,8.3,12.1,45,0.04,,---,0.20,VWS V14.01,2013-05-22 19:18:00,
2013-05-22 15:23:00,74.5,52.4,28.70,SW,219,3.6,12.1,46,0.00,,---,0.20,VWS V14.01,2013-05-22 19:23:00,
2013-05-22 15:28:00,76.3,51.5,28.70,SE,145,3.1,6.3,42,0.00,,---,0.20,VWS V14.01,2013-05-22 19:28:00,
2013-05-22 15:33:00,76.6,51.8,28.70,South,184,4.9,6.7,42,0.00,,---,0.20,VWS V14.01,2013-05-22 19:33:00,
2013-05-22 15:38:00,76.8,48.6,28.70,SSW,201,5.8,12.5,37,0.00,,---,0.20,VWS V14.01,2013-05-22 19:38:00,
2013-05-22 15:43:00,76.8,47.9,28.70,WSW,238,12.5,12.5,36,0.00,,---,0.20,VWS V14.01,2013-05-22 19:43:00,
2013-05-22 15:48:00,76.8,46.3,28.70,SSW,213,0.0,4.9,34,0.00,,---,0.20,VWS V14.01,2013-05-22 19:48:00,
2013-05-22 15:53:00,77.7,48.7,28.70,SW,235,2.7,6.3,36,0.00,,---,0.20,VWS V14.01,2013-05-22 19:53:00,
2013-05-22 15:58:00,77.2,49.6,28.70,NW,307,4.0,4.5,38,0.00,,---,0.20,VWS V14.01,2013-05-22 19:58:00,
2013-05-22 16:03:00,76.3,47.4,28.70,ESE,106,0.0,8.7,36,0.00,,---,0.20,VWS V14.01,2013-05-22 20:03:00,
2013-05-22 16:08:00,77.0,47.3,28.70,SSE,154,8.3,10.1,35,0.00,,---,0.20,VWS V14.01,2013-05-22 20:08:00,
2013-05-22 16:13:00,76.5,46.0,28.70,WNW,284,8.3,13.4,34,0.00,,---,0.20,VWS V14.01,2013-05-22 20:13:00,
2013-05-22 16:18:00,77.0,46.5,28.70,SW,216,4.9,10.1,34,0.00,,---,0.20,VWS V14.01,2013-05-22 20:18:00,
2013-05-22 16:23:00,77.2,45.1,28.70,SW,217,4.5,13.4,32,0.00,,---,0.20,VWS V14.01,2013-05-22 20:23:00,
2013-05-22 16:28:00,77.0,44.1,28.70,SSW,199,7.8,8.3,31,0.00,,---,0.20,VWS V14.01,2013-05-22 20:28:00,
2013-05-22 16:33:00,77.2,45.1,28.67,South,177,6.7,8.7,32,0.00,,---,0.20,VWS V14.01,2013-05-22 20:33:00,
2013-05-22 16:38:00,77.0,44.9,28.67,SE,130,3.6,7.8,32,0.00,,---,0.20,VWS V14.01,2013-05-22 20:38:00,
2013-05-22 16:43:00,77.2,45.1,28.67,SW,226,2.7,8.7,32,0.00,,---,0.20,VWS V14.01,2013-05-22 20:43:00,
2013-05-22 16:48:00,78.1,45.0,28.67,South,176,4.5,7.4,31,0.00,,---,0.20,VWS V14.01,2013-05-22 20:48:00,
2013-05-22 16:53:00,79.3,45.2,28.67,West,267,4.0,6.9,30,0.00,,---,0.20,VWS V14.01,2013-05-22 20:53:00,
2013-05-22 16:58:00,78.4,44.5,28.67,WSW,245,0.0,5.4,30,0.00,,---,0.20,VWS V14.01,2013-05-22 20:58:00,
2013-05-22 17:03:00,78.6,46.3,28.67,SW,217,0.0,4.5,32,0.00,,---,0.20,VWS V14.01,2013-05-22 21:03:00,
2013-05-22 17:08:00,79.7,45.6,28.67,WSW,246,4.9,10.1,30,0.00,,---,0.20,VWS V14.01,2013-05-22 21:08:00,
2013-05-22 17:13:00,79.7,45.6,28.67,SSW,209,6.3,7.4,30,0.00,,---,0.20,VWS V14.01,2013-05-22 21:13:00,
2013-05-22 17:18:00,80.4,46.2,28.67,SSW,194,5.8,7.4,30,0.00,,---,0.20,VWS V14.01,2013-05-22 21:18:00,
2013-05-22 17:23:00,80.8,46.5,28.67,WNW,301,2.7,4.0,30,0.00,,---,0.20,VWS V14.01,2013-05-22 21:23:00,
2013-05-22 17:28:00,80.6,45.4,28.67,West,268,5.8,7.8,29,0.00,,---,0.20,VWS V14.01,2013-05-22 21:28:00,
2013-05-22 17:33:00,80.1,45.0,28.67,SW,224,6.7,7.4,29,0.00,,---,0.20,VWS V14.01,2013-05-22 21:33:00,
2013-05-22 17:38:00,79.5,45.4,28.67,South,181,4.9,5.4,30,0.00,,---,0.20,VWS V14.01,2013-05-22 21:38:00,
2013-05-22 17:43:00,79.5,46.3,28.67,WSW,239,0.0,4.9,31,0.00,,---,0.20,VWS V14.01,2013-05-22 21:43:00,
2013-05-22 17:48:00,80.4,46.2,28.67,ESE,117,3.1,4.0,30,0.00,,---,0.20,VWS V14.01,2013-05-22 21:48:00,
2013-05-22 17:54:00,79.9,44.8,28.67,SSE,151,4.0,8.3,29,0.00,,---,0.20,VWS V14.01,2013-05-22 21:54:00,
2013-05-22 17:59:00,78.1,45.0,28.67,South,179,4.0,5.4,31,0.00,,---,0.20,VWS V14.01,2013-05-22 21:59:00,
2013-05-22 18:04:00,76.6,44.6,28.67,West,273,0.0,5.4,32,0.00,,---,0.20,VWS V14.01,2013-05-22 22:04:00,
2013-05-22 18:09:00,75.4,45.9,28.67,West,270,8.7,8.7,35,0.00,,---,0.20,VWS V14.01,2013-05-22 22:09:00,
2013-05-22 18:14:00,73.2,49.4,28.67,WSW,251,5.8,8.3,43,0.00,,---,0.20,VWS V14.01,2013-05-22 22:14:00,
2013-05-22 18:19:00,68.9,56.2,28.67,WNW,291,6.3,12.5,64,0.00,,---,0.20,VWS V14.01,2013-05-22 22:19:00,
2013-05-22 18:24:00,66.7,58.6,28.67,WNW,293,3.6,7.4,75,0.04,,---,0.24,VWS V14.01,2013-05-22 22:24:00,
2013-05-22 18:29:00,65.3,59.3,28.67,WNW,295,3.6,8.7,81,0.08,,---,0.28,VWS V14.01,2013-05-22 22:29:00,
2013-05-22 18:34:00,64.8,59.8,28.67,West,276,5.8,11.6,84,0.08,,---,0.28,VWS V14.01,2013-05-22 22:34:00,
2013-05-22 18:39:00,64.0,59.5,28.67,West,263,6.7,7.8,85,0.08,,---,0.28,VWS V14.01,2013-05-22 22:39:00,
2013-05-22 18:44:00,63.5,57.6,28.67,West,266,5.4,8.7,81,0.08,,---,0.28,VWS V14.01,2013-05-22 22:44:00,
2013-05-22 18:45:00,54.1,52.2,28.94,NNW,341,3.1,4.5,93,0.00,,---,0.04,VWS V14.01,2013-05-22 22:45:00,
2013-05-22 18:46:00,54.1,52.2,28.94,NW,316,0.0,3.1,93,0.00,,---,0.04,VWS V14.01,2013-05-22 22:46:00,
2013-05-22 18:47:00,54.1,52.5,28.94,North,356,0.0,5.4,94,0.00,,---,0.04,VWS V14.01,2013-05-22 22:47:00,
2013-05-22 18:48:00,54.1,52.5,28.94,NNW,334,5.8,6.3,94,0.00,,---,0.04,VWS V14.01,2013-05-22 22:48:00,
2013-05-22 18:49:00,63.9,57.9,28.67,WSW,247,6.3,8.7,81,0.08,,---,0.28,VWS V14.01,2013-05-22 22:49:00,
2013-05-22 18:50:00,54.0,52.3,28.94,NNW,334,7.8,11.2,94,0.00,,---,0.04,VWS V14.01,2013-05-22 22:50:00,
2013-05-22 18:51:00,53.8,52.1,28.94,NW,308,9.6,11.2,94,0.00,,---,0.04,VWS V14.01,2013-05-22 22:51:00,
2013-05-22 18:52:00,53.8,52.1,28.94,NNW,332,4.9,9.6,94,0.00,,---,0.04,VWS V14.01,2013-05-22 22:52:00,
2013-05-22 18:53:00,53.8,52.1,28.94,NNW,328,4.0,6.3,94,0.00,,---,0.04,VWS V14.01,2013-05-22 22:53:00,
2013-05-22 18:54:00,64.8,57.8,28.67,WSW,241,5.8,7.8,78,0.08,,---,0.28,VWS V14.01,2013-05-22 22:54:00,
2013-05-22 18:55:00,53.8,52.1,28.94,NNW,345,4.0,6.7,94,0.00,,---,0.04,VWS V14.01,2013-05-22 22:55:00,
2013-05-22 18:56:00,54.0,52.3,28.94,NW,315,6.3,11.0,94,0.00,,---,0.04,VWS V14.01,2013-05-22 22:56:00,
2013-05-22 18:57:00,53.8,52.4,28.97,North,351,6.9,7.8,95,0.00,,---,0.04,VWS V14.01,2013-05-22 22:57:00,
2013-05-22 19:00:00,66.0,58.6,28.70,West,261,4.5,4.9,77,0.08,,---,0.28,VWS V14.01,2013-05-22 23:00:00,
2013-05-22 19:01:00,53.8,52.4,28.97,NW,319,5.4,6.3,95,0.00,,---,0.04,VWS V14.01,2013-05-22 23:01:00,
2013-05-22 19:02:00,53.8,52.4,28.97,NNW,347,6.3,9.2,95,0.00,,---,0.04,VWS V14.01,2013-05-22 23:02:00,
2013-05-22 19:03:00,53.8,52.4,28.97,NNW,347,3.1,7.4,95,0.00,,---,0.04,VWS V14.01,2013-05-22 23:03:00,
2013-05-22 19:04:00,53.8,52.4,28.97,NNW,340,6.9,6.9,95,0.00,,---,0.04,VWS V14.01,2013-05-22 23:04:00,
2013-05-22 19:05:00,66.4,57.1,28.70,SW,235,4.5,5.8,72,0.08,,---,0.28,VWS V14.01,2013-05-22 23:05:00,
2013-05-22 19:06:00,53.8,52.4,28.97,NNW,335,5.4,7.4,95,0.00,,---,0.04,VWS V14.01,2013-05-22 23:06:00,
2013-05-22 19:07:00,53.6,52.2,28.97,North,351,4.5,7.8,95,0.00,,---,0.04,VWS V14.01,2013-05-22 23:07:00,
2013-05-22 19:08:00,53.8,52.4,28.97,NNW,341,4.9,4.9,95,0.00,,---,0.04,VWS V14.01,2013-05-22 23:08:00,
2013-05-22 19:09:00,53.8,52.4,28.97,WNW,293,4.9,8.3,95,0.00,,---,0.04,VWS V14.01,2013-05-22 23:09:00,
2013-05-22 19:10:00,66.6,55.7,28.70,West,260,0.0,3.6,68,0.08,,---,0.28,VWS V14.01,2013-05-22 23:10:00,
2013-05-22 19:12:00,54.0,52.6,28.97,NNW,344,5.4,6.7,95,0.00,,---,0.04,VWS V14.01,2013-05-22 23:12:00,
2013-05-22 19:13:00,54.0,52.6,28.97,NW,304,5.4,7.4,95,0.00,,---,0.04,VWS V14.01,2013-05-22 23:13:00,
2013-05-22 19:14:00,54.0,52.6,28.97,NNW,341,3.6,6.7,95,0.00,,---,0.04,VWS V14.01,2013-05-22 23:14:00,
2013-05-22 19:15:00,66.7,55.5,28.70,SW,215,4.9,4.9,67,0.08,,---,0.28,VWS V14.01,2013-05-22 23:15:00,
2013-05-22 19:17:00,54.3,53.2,28.97,NW,315,4.5,5.8,96,0.00,,---,0.04,VWS V14.01,2013-05-22 23:17:00,
2013-05-22 19:18:00,54.3,53.2,28.97,North,7,3.6,4.9,96,0.00,,---,0.04,VWS V14.01,2013-05-22 23:18:00,
2013-05-22 19:20:00,67.1,56.2,28.70,SW,215,3.1,3.1,68,0.08,,---,0.28,VWS V14.01,2013-05-22 23:20:00,
2013-05-22 19:22:00,54.3,53.2,28.97,NNW,347,4.0,6.3,96,0.00,,---,0.04,VWS V14.01,2013-05-22 23:22:00,
2013-05-22 19:23:00,54.3,53.2,28.97,NNW,327,4.5,4.9,96,0.00,,---,0.04,VWS V14.01,2013-05-22 23:23:00,
2013-05-22 19:24:00,54.3,53.2,28.97,North,7,4.5,5.8,96,0.00,,---,0.04,VWS V14.01,2013-05-22 23:24:00,
2013-05-22 19:25:00,67.3,55.5,28.70,SW,216,0.0,0.0,66,0.04,,---,0.28,VWS V14.01,2013-05-22 23:25:00,
2013-05-22 19:26:00,54.0,52.8,28.97,NNW,336,5.4,9.6,96,0.00,,---,0.04,VWS V14.01,2013-05-22 23:26:00,
2013-05-22 19:27:00,54.1,53.0,28.97,North,351,6.3,7.4,96,0.00,,---,0.04,VWS V14.01,2013-05-22 23:27:00,
2013-05-22 19:28:00,53.8,52.4,28.97,NW,326,6.3,7.8,95,0.00,,---,0.04,VWS V14.01,2013-05-22 23:28:00,
2013-05-22 19:29:00,53.8,52.4,28.97,NNW,337,0.0,6.3,95,0.00,,---,0.04,VWS V14.01,2013-05-22 23:29:00,
2013-05-22 19:30:00,67.3,56.4,28.70,SW,216,0.0,0.0,68,0.00,,---,0.28,VWS V14.01,2013-05-22 23:30:00,
2013-05-22 19:32:00,54.1,52.7,28.97,NNE,23,3.1,5.4,95,0.00,,---,0.04,VWS V14.01,2013-05-22 23:32:00,
2013-05-22 19:33:00,54.1,52.7,28.97,North,351,6.7,7.8,95,0.00,,---,0.04,VWS V14.01,2013-05-22 23:33:00,
2013-05-22 19:34:00,54.0,52.6,28.97,NE,48,2.7,6.9,95,0.00,,---,0.04,VWS V14.01,2013-05-22 23:34:00,
2013-05-22 19:35:00,67.3,56.0,28.70,SW,216,0.0,0.0,67,0.00,,---,0.28,VWS V14.01,2013-05-22 23:35:00,
2013-05-22 19:36:00,54.1,52.7,28.97,NNW,343,4.5,6.7,95,0.00,,---,0.04,VWS V14.01,2013-05-22 23:36:00,
2013-05-22 19:37:00,54.1,52.7,28.97,NW,326,3.1,4.5,95,0.00,,---,0.04,VWS V14.01,2013-05-22 23:37:00,
2013-05-22 19:40:00,67.6,56.7,28.70,SW,216,0.0,0.0,68,0.00,,---,0.28,VWS V14.01,2013-05-22 23:40:00,
2013-05-22 19:42:00,54.1,52.7,28.97,NW,308,4.0,4.9,95,0.00,,---,0.04,VWS V14.01,2013-05-22 23:42:00,
2013-05-22 19:43:00,54.3,52.9,28.97,NW,306,0.0,6.7,95,0.00,,---,0.04,VWS V14.01,2013-05-22 23:43:00,
2013-05-22 19:44:00,54.5,53.1,28.97,NNW,337,6.7,6.7,95,0.00,,---,0.04,VWS V14.01,2013-05-22 23:44:00,
2013-05-22 19:45:00,68.2,57.2,28.70,West,270,0.0,4.9,68,0.00,,---,0.28,VWS V14.01,2013-05-22 23:45:00,
2013-05-22 19:46:00,54.3,52.9,28.97,NNW,333,4.0,6.7,95,0.00,,---,0.04,VWS V14.01,2013-05-22 23:46:00,
2013-05-22 19:47:00,54.3,52.9,28.97,NW,309,3.6,6.7,95,0.00,,---,0.04,VWS V14.01,2013-05-22 23:47:00,
2013-05-22 19:48:00,54.3,52.9,28.97,NNW,341,5.4,6.7,95,0.00,,---,0.04,VWS V14.01,2013-05-22 23:48:00,
2013-05-22 19:50:00,68.5,56.7,28.70,West,270,0.0,3.6,66,0.00,,---,0.28,VWS V14.01,2013-05-22 23:50:00,
2013-05-22 19:51:00,54.3,52.6,28.97,NNW,344,0.0,0.0,94,0.00,,---,0.04,VWS V14.01,2013-05-22 23:51:00,
2013-05-22 19:52:00,54.3,52.6,28.97,NW,322,4.9,5.8,94,0.00,,---,0.04,VWS V14.01,2013-05-22 23:52:00,
2013-05-22 19:53:00,54.5,52.8,28.97,NNE,33,0.0,4.9,94,0.00,,---,0.04,VWS V14.01,2013-05-22 23:53:00,
2013-05-22 19:54:00,54.5,52.8,28.97,NNE,13,4.9,6.7,94,0.00,,---,0.04,VWS V14.01,2013-05-22 23:54:00,
2013-05-22 19:55:00,68.7,56.1,28.70,SW,222,0.0,0.0,64,0.00,,---,0.28,VWS V14.01,2013-05-22 23:55:00,
2013-05-22 19:56:00,54.5,52.8,28.97,NNW,344,4.9,5.8,94,0.00,,---,0.04,VWS V14.01,2013-05-22 23:56:00,
2013-05-22 19:57:00,54.3,52.6,29.00,North,356,3.6,4.9,94,0.00,,---,0.04,VWS V14.01,2013-05-22 23:57:00,
2013-05-22 19:59:00,54.3,52.0,29.00,NNE,30,3.6,8.3,92,0.00,,---,0.04,VWS V14.01,2013-05-22 23:59:00,
2013-05-22 20:00:00,68.5,55.9,28.70,SW,222,0.0,2.7,64,0.00,,---,0.28,VWS V14.01,2013-05-23 00:00:00,
2013-05-22 20:01:00,54.3,51.8,29.00,North,5,5.4,7.4,91,0.00,,---,0.04,VWS V14.01,2013-05-23 00:01:00,
2013-05-22 20:02:00,54.3,51.5,29.00,North,351,4.9,6.3,90,0.00,,---,0.04,VWS V14.01,2013-05-23 00:02:00,
2013-05-22 20:03:00,54.3,51.2,29.00,NNW,329,2.7,4.9,89,0.00,,---,0.04,VWS V14.01,2013-05-23 00:03:00,
2013-05-22 20:05:00,68.5,56.3,28.70,SSW,193,0.0,0.0,65,0.00,,---,0.28,VWS V14.01,2013-05-23 00:05:00,
2013-05-22 20:06:00,54.5,50.1,29.00,North,7,0.0,4.9,85,0.00,,---,0.04,VWS V14.01,2013-05-23 00:06:00,
2013-05-22 20:07:00,54.7,50.3,29.00,North,356,6.9,6.9,85,0.00,,---,0.04,VWS V14.01,2013-05-23 00:07:00,
2013-05-22 20:08:00,54.5,49.5,29.00,NNE,22,0.0,6.9,83,0.00,,---,0.04,VWS V14.01,2013-05-23 00:08:00,
2013-05-22 20:09:00,54.7,49.6,29.00,North,351,0.0,6.3,83,0.00,,---,0.04,VWS V14.01,2013-05-23 00:09:00,
2013-05-22 20:10:00,68.5,55.0,28.70,SW,233,0.0,5.8,62,0.00,,---,0.28,VWS V14.01,2013-05-23 00:10:00,
2013-05-22 20:11:00,54.7,49.3,29.00,NNE,19,0.0,3.1,82,0.00,,---,0.04,VWS V14.01,2013-05-23 00:11:00,
2013-05-22 20:12:00,54.7,49.0,29.00,NW,322,0.0,3.1,81,0.00,,---,0.04,VWS V14.01,2013-05-23 00:12:00,
2013-05-22 20:13:00,54.7,48.6,29.00,NE,48,0.0,3.1,80,0.00,,---,0.04,VWS V14.01,2013-05-23 00:13:00,
2013-05-22 20:14:00,54.9,48.8,29.00,NE,41,0.0,3.6,80,0.00,,---,0.04,VWS V14.01,2013-05-23 00:14:00,
2013-05-22 20:15:00,68.5,55.5,28.70,SW,227,0.0,0.0,63,0.00,,---,0.28,VWS V14.01,2013-05-23 00:15:00,
2013-05-22 20:16:00,54.9,48.1,29.00,NNW,334,5.4,5.4,78,0.00,,---,0.04,VWS V14.01,2013-05-23 00:16:00,
2013-05-22 20:17:00,54.7,47.6,29.00,NNE,31,2.7,5.4,77,0.00,,---,0.04,VWS V14.01,2013-05-23 00:17:00,
2013-05-22 20:18:00,54.9,47.5,29.00,NNW,342,0.0,3.6,76,0.00,,---,0.04,VWS V14.01,2013-05-23 00:18:00,
2013-05-22 20:19:00,54.9,47.5,29.00,North,7,3.6,3.6,76,0.00,,---,0.04,VWS V14.01,2013-05-23 00:19:00,
2013-05-22 20:20:00,68.2,54.7,28.70,West,259,0.0,5.4,62,0.00,,---,0.28,VWS V14.01,2013-05-23 00:20:00,
2013-05-22 20:21:00,54.9,47.1,29.00,NNE,17,0.0,4.5,75,0.00,,---,0.04,VWS V14.01,2013-05-23 00:21:00,
2013-05-22 20:23:00,54.9,46.7,29.00,NW,319,0.0,3.1,74,0.00,,---,0.04,VWS V14.01,2013-05-23 00:23:00,
2013-05-22 20:24:00,54.9,46.7,29.00,NNE,20,3.6,3.6,74,0.00,,---,0.04,VWS V14.01,2013-05-23 00:24:00,
2013-05-22 20:25:00,67.8,54.3,28.70,West,259,0.0,0.0,62,0.00,,---,0.28,VWS V14.01,2013-05-23 00:25:00,
2013-05-22 20:27:00,55.0,46.9,29.00,NNE,20,0.0,0.0,74,0.00,,---,0.04,VWS V14.01,2013-05-23 00:27:00,
2013-05-22 20:28:00,55.0,46.9,29.00,NE,34,3.6,3.6,74,0.00,,---,0.04,VWS V14.01,2013-05-23 00:28:00,
2013-05-22 20:29:00,55.0,46.9,29.00,NE,34,0.0,3.6,74,0.00,,---,0.04,VWS V14.01,2013-05-23 00:29:00,
2013-05-22 20:30:00,67.5,54.9,28.70,WSW,252,0.0,0.0,64,0.00,,---,0.28,VWS V14.01,2013-05-23 00:30:00,
2013-05-22 20:31:00,55.0,47.3,29.00,NE,34,0.0,0.0,75,0.00,,---,0.04,VWS V14.01,2013-05-23 00:31:00,
2013-05-22 20:35:00,67.1,55.0,28.70,WSW,252,0.0,0.0,65,0.00,,---,0.28,VWS V14.01,2013-05-23 00:35:00,
2013-05-22 20:36:00,55.0,46.9,29.00,ENE,76,0.0,4.5,74,0.00,,---,0.04,VWS V14.01,2013-05-23 00:36:00,
2013-05-22 20:37:00,55.0,46.9,29.00,NE,56,0.0,2.7,74,0.00,,---,0.04,VWS V14.01,2013-05-23 00:37:00,
2013-05-22 20:40:00,66.7,55.0,28.70,WSW,252,0.0,0.0,66,0.00,,---,0.28,VWS V14.01,2013-05-23 00:40:00,
2013-05-22 20:45:00,66.6,55.7,28.70,WSW,252,0.0,0.0,68,0.00,,---,0.28,VWS V14.01,2013-05-23 00:45:00,
2013-05-22 20:46:00,55.2,47.1,29.00,NNW,341,3.1,4.9,74,0.00,,---,0.04,VWS V14.01,2013-05-23 00:46:00,
2013-05-22 20:48:00,55.2,47.5,29.00,NNW,340,0.0,0.0,75,0.00,,---,0.04,VWS V14.01,2013-05-23 00:48:00,
2013-05-22 20:50:00,66.0,55.2,28.70,WSW,252,0.0,0.0,68,0.00,,---,0.28,VWS V14.01,2013-05-23 00:50:00,
2013-05-22 20:51:00,55.0,48.7,29.00,NNW,330,0.0,4.5,79,0.00,,---,0.04,VWS V14.01,2013-05-23 00:51:00,
2013-05-22 20:55:00,65.7,55.2,28.70,WSW,252,0.0,0.0,69,0.00,,---,0.28,VWS V14.01,2013-05-23 00:55:00,
2013-05-22 21:00:00,65.3,55.3,28.70,WSW,252,0.0,0.0,70,0.00,,---,0.28,VWS V14.01,2013-05-23 01:00:00,
2013-05-22 21:02:00,54.7,49.6,29.03,NNW,347,5.8,5.8,83,0.00,,---,0.04,VWS V14.01,2013-05-23 01:02:00,
2013-05-22 21:05:00,65.1,55.5,28.70,WSW,252,0.0,0.0,71,0.00,,---,0.28,VWS V14.01,2013-05-23 01:05:00,
2013-05-22 21:10:00,64.8,55.5,28.70,WSW,252,0.0,0.0,72,0.00,,---,0.28,VWS V14.01,2013-05-23 01:10:00,
2013-05-22 21:15:00,64.6,56.1,28.70,WSW,252,0.0,0.0,74,0.00,,---,0.28,VWS V14.01,2013-05-23 01:15:00,
2013-05-22 21:20:00,64.2,56.1,28.70,WSW,252,0.0,0.0,75,0.00,,---,0.28,VWS V14.01,2013-05-23 01:20:00,
2013-05-22 21:25:00,63.9,55.8,28.70,WSW,252,0.0,0.0,75,0.00,,---,0.28,VWS V14.01,2013-05-23 01:25:00,
2013-05-22 21:30:00,63.7,56.0,28.70,WSW,252,0.0,0.0,76,0.00,,---,0.28,VWS V14.01,2013-05-23 01:30:00,
2013-05-22 21:35:00,63.5,56.2,28.70,WSW,252,0.0,0.0,77,0.00,,---,0.28,VWS V14.01,2013-05-23 01:35:00,
2013-05-22 21:40:00,63.3,56.3,28.70,WSW,252,0.0,0.0,78,0.00,,---,0.28,VWS V14.01,2013-05-23 01:40:00,
2013-05-22 21:45:00,63.1,56.2,28.70,WSW,252,0.0,0.0,78,0.00,,---,0.28,VWS V14.01,2013-05-23 01:45:00,
2013-05-22 21:50:00,63.3,56.7,28.70,WSW,252,0.0,0.0,79,0.00,,---,0.28,VWS V14.01,2013-05-23 01:50:00,
2013-05-22 21:55:00,63.5,57.2,28.70,WSW,252,0.0,0.0,80,0.00,,---,0.28,VWS V14.01,2013-05-23 01:55:00,
2013-05-22 22:00:00,63.7,57.8,28.70,WSW,252,0.0,0.0,81,0.00,,---,0.28,VWS V14.01,2013-05-23 02:00:00,
2013-05-22 22:06:00,64.0,58.8,28.70,WSW,252,2.7,3.6,83,0.00,,---,0.28,VWS V14.01,2013-05-23 02:06:00,
2013-05-22 22:11:00,64.2,59.3,28.70,WSW,257,4.9,6.9,84,0.00,,---,0.28,VWS V14.01,2013-05-23 02:11:00,
2013-05-22 22:16:00,63.9,59.9,28.73,WNW,284,4.9,7.4,87,0.12,,---,0.39,VWS V14.01,2013-05-23 02:16:00,
2013-05-22 22:21:00,63.0,60.0,28.73,West,271,0.0,4.5,90,0.12,,---,0.39,VWS V14.01,2013-05-23 02:21:00,
2013-05-22 22:27:00,62.6,59.9,28.73,SW,230,0.0,5.4,91,0.20,,---,0.47,VWS V14.01,2013-05-23 02:27:00,
2013-05-22 22:32:00,62.1,59.7,28.73,SSW,196,0.0,0.0,92,0.20,,---,0.47,VWS V14.01,2013-05-23 02:32:00,
2013-05-22 22:37:00,61.7,59.4,28.73,WSW,246,0.0,0.0,92,0.20,,---,0.47,VWS V14.01,2013-05-23 02:37:00,
2013-05-22 22:42:00,61.3,59.3,28.73,SSE,152,3.6,4.5,93,0.20,,---,0.47,VWS V14.01,2013-05-23 02:42:00,
2013-05-22 22:47:00,61.3,59.3,28.73,SSE,151,0.0,0.0,93,0.20,,---,0.47,VWS V14.01,2013-05-23 02:47:00,
2013-05-22 22:52:00,61.3,59.3,28.73,SSE,152,0.0,3.1,93,0.20,,---,0.47,VWS V14.01,2013-05-23 02:52:00,
2013-05-22 22:57:00,61.3,59.3,28.73,SSE,152,0.0,0.0,93,0.20,,---,0.47,VWS V14.01,2013-05-23 02:57:00,
2013-05-22 23:02:00,61.2,59.4,28.73,SSE,152,0.0,0.0,94,0.20,,---,0.47,VWS V14.01,2013-05-23 03:02:00,
2013-05-22 23:07:00,61.2,59.4,28.73,SSE,152,0.0,0.0,94,0.20,,---,0.47,VWS V14.01,2013-05-23 03:07:00,
2013-05-22 23:14:00,61.2,59.4,28.73,SSE,152,0.0,0.0,94,0.16,,---,0.47,VWS V14.01,2013-05-23 03:14:00,
2013-05-22 23:19:00,61.0,59.2,28.73,SSE,152,0.0,0.0,94,0.08,,---,0.47,VWS V14.01,2013-05-23 03:19:00,
2013-05-22 23:24:00,60.8,59.4,28.73,SSE,152,0.0,0.0,95,0.08,,---,0.47,VWS V14.01,2013-05-23 03:24:00,
2013-05-22 23:30:00,60.6,59.2,28.73,SSE,152,0.0,0.0,95,0.00,,---,0.47,VWS V14.01,2013-05-23 03:30:00,
2013-05-22 23:35:00,60.6,59.2,28.73,SSE,152,0.0,0.0,95,0.00,,---,0.47,VWS V14.01,2013-05-23 03:35:00,
2013-05-22 23:41:00,60.4,59.0,28.73,SSE,152,0.0,0.0,95,0.00,,---,0.47,VWS V14.01,2013-05-23 03:41:00,
2013-05-22 23:46:00,60.4,59.0,28.73,SSE,152,0.0,0.0,95,0.00,,---,0.47,VWS V14.01,2013-05-23 03:46:00,
2013-05-22 23:51:00,60.6,59.2,28.73,SSE,152,0.0,0.0,95,0.00,,---,0.47,VWS V14.01,2013-05-23 03:51:00,
2013-05-22 23:56:00,60.6,59.2,28.73,SSE,152,0.0,0.0,95,0.00,,---,0.47,VWS V14.01,2013-05-23 03:56:00,
2013-05-22 23:59:00,50.9,45.3,29.09,NNW,328,6.7,6.7,81,0.00,,---,0.04,VWS V14.01,2013-05-23 03:59:00,